LFBZ/BIQ METAR and TAF weather

Enter ICAO airport designator
Station Type Date Time Source
LFBZ METAR 2021/10/20 07:30 UTC NOAA

LFBZ 200730Z AUTO 22006KT 170V290 9999 BKN056 BKN070 BKN080 23/13 Q1018 NOSIG


Station Type Date Time Source
LFBZ Decoded METAR 2021/10/20 07:30 UTC NOAA

Biarritz, France (LFBZ) 43-28N 001-32W 71M
Oct 20, 2021 - 03:30 AM EDT / 2021.10.20 0730 UTC
Wind: from the SW (220 degrees) at 7 MPH (6 KT) (direction variable):0
Visibility: greater than 7 mile(s):0
Sky conditions: mostly cloudy
Temperature: 73 F (23 C)
Dew Point: 55 F (13 C)
Relative Humidity: 53%
Pressure (altimeter): 30.06 in. Hg (1018 hPa)
ob: LFBZ 200730Z AUTO 22006KT 170V290 9999 BKN056 BKN070 BKN080 23/13 Q1018 NOSIG
cycle: 7

Station Type Date Time Source
LFBZ TAF 2021/10/20 06:44 UTC NOAA

TAF LFBZ 200500Z 2006/2106 20005KT CAVOK
TEMPO 2006/2008 18015G25KT
TEMPO 2018/2106 31015G30KT RA BKN030

Example: see airport list